VRG1040 SBCT-SBPA
Flight info
| Callsign | VRG1040 |
|---|---|
| Flight time | 0h 57m |
| Altitude | 32000 |
| Route | SAVLU DCT VUKMO |
| Aircraft | B739/M-SDE2E3FGHIRWXY/LB1 |
Departure
| Time | 2026-05-05 22:13 |
|---|---|
| Airport | Curitiba-Afonso Pena International Airport (SBCT) |
Arrival
| Time | 2026-05-05 23:10 |
|---|---|
| Airport | Porto Alegre-Salgado Filho International Airport (SBPA) |
| Time | Latitude | Longitude | Altitude | Speed | Heading |
|---|---|---|---|---|---|
| 2026-05-05 21:38 | -25.53493 | -49.17301 | 2988 ft | 0 kts | 223° |
| 2026-05-05 22:02 | -25.53489 | -49.17297 | 2983 ft | 2 kts | 221° |
| 2026-05-05 22:03 | -25.53477 | -49.17285 | 2998 ft | 2 kts | 219° |
| 2026-05-05 22:03 | -25.53464 | -49.17274 | 2998 ft | 2 kts | 213° |
| 2026-05-05 22:03 | -25.53449 | -49.17265 | 2998 ft | 2 kts | 191° |
| 2026-05-05 22:03 | -25.53434 | -49.17268 | 2998 ft | 2 kts | 136° |
| 2026-05-05 22:04 | -25.53431 | -49.17272 | 2998 ft | 0 kts | 134° |
| 2026-05-05 22:08 | -25.53432 | -49.17271 | 2976 ft | 2 kts | 134° |
| 2026-05-05 22:08 | -25.53461 | -49.17240 | 2988 ft | 5 kts | 135° |
| 2026-05-05 22:09 | -25.53476 | -49.17223 | 2989 ft | 5 kts | 134° |
| 2026-05-05 22:09 | -25.53502 | -49.17192 | 2989 ft | 7 kts | 134° |
| 2026-05-05 22:09 | -25.53537 | -49.17153 | 2990 ft | 7 kts | 134° |
| 2026-05-05 22:09 | -25.53572 | -49.17114 | 2990 ft | 7 kts | 134° |
| 2026-05-05 22:10 | -25.53601 | -49.17072 | 2991 ft | 7 kts | 111° |
| 2026-05-05 22:10 | -25.53593 | -49.17023 | 2992 ft | 7 kts | 64° |
| 2026-05-05 22:10 | -25.53604 | -49.16975 | 2992 ft | 7 kts | 115° |
| 2026-05-05 22:10 | -25.53615 | -49.16927 | 2993 ft | 6 kts | 95° |
| 2026-05-05 22:11 | -25.53615 | -49.16913 | 2993 ft | 0 kts | 88° |
| 2026-05-05 22:11 | -25.53614 | -49.16891 | 2993 ft | 5 kts | 89° |
| 2026-05-05 22:11 | -25.53614 | -49.16854 | 2993 ft | 5 kts | 90° |
| 2026-05-05 22:12 | -25.53614 | -49.16800 | 2993 ft | 8 kts | 91° |
| 2026-05-05 22:12 | -25.53613 | -49.16776 | 2993 ft | 4 kts | 82° |
| 2026-05-05 22:12 | -25.53596 | -49.16765 | 2993 ft | 3 kts | 15° |
| 2026-05-05 22:12 | -25.53577 | -49.16773 | 2993 ft | 3 kts | 328° |
| 2026-05-05 22:13 | -25.53455 | -49.16904 | 2991 ft | 61 kts | 314° |
| 2026-05-05 22:13 | -25.52974 | -49.17440 | 2983 ft | 133 kts | 315° |
| 2026-05-05 22:13 | -25.52181 | -49.18324 | 2995 ft | 187 kts | 315° |
| 2026-05-05 22:13 | -25.51261 | -49.19335 | 3761 ft | 184 kts | 316° |
| 2026-05-05 22:14 | -25.50632 | -49.20564 | 4477 ft | 189 kts | 273° |
| 2026-05-05 22:14 | -25.51007 | -49.21978 | 4934 ft | 209 kts | 231° |
| 2026-05-05 22:14 | -25.52148 | -49.23109 | 5155 ft | 231 kts | 222° |
| 2026-05-05 22:14 | -25.53350 | -49.24393 | 5391 ft | 246 kts | 228° |
| 2026-05-05 22:15 | -25.54476 | -49.25845 | 5878 ft | 250 kts | 233° |
| 2026-05-05 22:15 | -25.55513 | -49.27397 | 6421 ft | 251 kts | 237° |
| 2026-05-05 22:15 | -25.56477 | -49.29024 | 6927 ft | 256 kts | 240° |
| 2026-05-05 22:15 | -25.57419 | -49.30751 | 7155 ft | 273 kts | 241° |
| 2026-05-05 22:16 | -25.58383 | -49.32602 | 7704 ft | 278 kts | 242° |
| 2026-05-05 22:16 | -25.59345 | -49.34476 | 7952 ft | 280 kts | 242° |
| 2026-05-05 22:16 | -25.60432 | -49.36255 | 7965 ft | 280 kts | 225° |
| 2026-05-05 22:16 | -25.62100 | -49.37379 | 8003 ft | 288 kts | 197° |
| 2026-05-05 22:17 | -25.64110 | -49.37587 | 8476 ft | 296 kts | 175° |
| 2026-05-05 22:17 | -25.66137 | -49.37180 | 9257 ft | 297 kts | 169° |
| 2026-05-05 22:17 | -25.68163 | -49.36675 | 10027 ft | 299 kts | 168° |
| 2026-05-05 22:17 | -25.70227 | -49.36154 | 10430 ft | 314 kts | 168° |
| 2026-05-05 22:18 | -25.72446 | -49.35607 | 10585 ft | 337 kts | 168° |
| 2026-05-05 22:18 | -25.74805 | -49.35040 | 10737 ft | 357 kts | 169° |
| 2026-05-05 22:18 | -25.77277 | -49.34457 | 11087 ft | 368 kts | 169° |
| 2026-05-05 22:18 | -25.79800 | -49.33864 | 11651 ft | 371 kts | 169° |
| 2026-05-05 22:19 | -25.82303 | -49.33276 | 12298 ft | 372 kts | 169° |
| 2026-05-05 22:19 | -25.84844 | -49.32677 | 12919 ft | 374 kts | 169° |
| 2026-05-05 22:19 | -25.87397 | -49.32075 | 13492 ft | 377 kts | 169° |
| 2026-05-05 22:19 | -25.89969 | -49.31468 | 14072 ft | 379 kts | 169° |
| 2026-05-05 22:20 | -25.92559 | -49.30856 | 14571 ft | 382 kts | 169° |
| 2026-05-05 22:20 | -25.95165 | -49.30241 | 15082 ft | 384 kts | 169° |
| 2026-05-05 22:20 | -25.97785 | -49.29622 | 15592 ft | 386 kts | 169° |
| 2026-05-05 22:20 | -26.00421 | -49.28999 | 16099 ft | 388 kts | 169° |
| 2026-05-05 22:21 | -26.03076 | -49.28371 | 16601 ft | 391 kts | 170° |
| 2026-05-05 22:21 | -26.05756 | -49.27738 | 17093 ft | 393 kts | 170° |
| 2026-05-05 22:21 | -26.08440 | -49.27102 | 17575 ft | 396 kts | 170° |
| 2026-05-05 22:21 | -26.11130 | -49.26719 | 18026 ft | 395 kts | 184° |
| 2026-05-05 22:22 | -26.13814 | -49.27261 | 18493 ft | 392 kts | 200° |
| 2026-05-05 22:22 | -26.16385 | -49.28278 | 18940 ft | 392 kts | 202° |
| 2026-05-05 22:22 | -26.18950 | -49.29348 | 19354 ft | 395 kts | 202° |
| 2026-05-05 22:22 | -26.21524 | -49.30435 | 19748 ft | 397 kts | 202° |
| 2026-05-05 22:23 | -26.24112 | -49.31525 | 20161 ft | 398 kts | 202° |
| 2026-05-05 22:23 | -26.26714 | -49.32611 | 20578 ft | 400 kts | 202° |
| 2026-05-05 22:23 | -26.29330 | -49.33695 | 20985 ft | 402 kts | 202° |
| 2026-05-05 22:23 | -26.31963 | -49.34779 | 21387 ft | 404 kts | 202° |
| 2026-05-05 22:24 | -26.34606 | -49.35863 | 21769 ft | 406 kts | 202° |
| 2026-05-05 22:24 | -26.37267 | -49.36952 | 22099 ft | 409 kts | 202° |
| 2026-05-05 22:24 | -26.39949 | -49.38051 | 22487 ft | 410 kts | 202° |
| 2026-05-05 22:24 | -26.42608 | -49.39139 | 22877 ft | 412 kts | 202° |
| 2026-05-05 22:25 | -26.45314 | -49.40246 | 23248 ft | 414 kts | 203° |
| 2026-05-05 22:25 | -26.48021 | -49.41355 | 23614 ft | 416 kts | 203° |
| 2026-05-05 22:25 | -26.50748 | -49.42473 | 23938 ft | 418 kts | 203° |
| 2026-05-05 22:25 | -26.53477 | -49.43591 | 24254 ft | 419 kts | 203° |
| 2026-05-05 22:26 | -26.56228 | -49.44720 | 24589 ft | 420 kts | 203° |
| 2026-05-05 22:26 | -26.58973 | -49.45847 | 24923 ft | 421 kts | 203° |
| 2026-05-05 22:26 | -26.61727 | -49.46978 | 25251 ft | 422 kts | 203° |
| 2026-05-05 22:26 | -26.64485 | -49.48111 | 25590 ft | 423 kts | 203° |
| 2026-05-05 22:27 | -26.67251 | -49.49248 | 25909 ft | 424 kts | 203° |
| 2026-05-05 22:27 | -26.70029 | -49.50392 | 26239 ft | 425 kts | 203° |
| 2026-05-05 22:27 | -26.72817 | -49.51539 | 26553 ft | 426 kts | 203° |
| 2026-05-05 22:27 | -26.75575 | -49.52674 | 26874 ft | 427 kts | 203° |
| 2026-05-05 22:28 | -26.78370 | -49.53826 | 27184 ft | 429 kts | 203° |
| 2026-05-05 22:28 | -26.81171 | -49.54980 | 27487 ft | 430 kts | 204° |
| 2026-05-05 22:28 | -26.83979 | -49.56139 | 27828 ft | 429 kts | 203° |
| 2026-05-05 22:28 | -26.86772 | -49.57290 | 28338 ft | 426 kts | 204° |
| 2026-05-05 22:29 | -26.89537 | -49.58430 | 28906 ft | 422 kts | 204° |
| 2026-05-05 22:29 | -26.92282 | -49.59563 | 29397 ft | 419 kts | 204° |
| 2026-05-05 22:29 | -26.95020 | -49.60694 | 29813 ft | 419 kts | 204° |
| 2026-05-05 22:29 | -26.97756 | -49.61826 | 30262 ft | 417 kts | 204° |
| 2026-05-05 22:30 | -27.00470 | -49.62949 | 30688 ft | 414 kts | 204° |
| 2026-05-05 22:30 | -27.03172 | -49.64067 | 31086 ft | 413 kts | 204° |
| 2026-05-05 22:30 | -27.05862 | -49.65182 | 31425 ft | 412 kts | 204° |
| 2026-05-05 22:30 | -27.08539 | -49.66291 | 31814 ft | 410 kts | 204° |
| 2026-05-05 22:31 | -27.11211 | -49.67399 | 32137 ft | 409 kts | 204° |
| 2026-05-05 22:31 | -27.16576 | -49.69627 | 32192 ft | 411 kts | 204° |
| 2026-05-05 22:32 | -27.21877 | -49.71831 | 32182 ft | 409 kts | 204° |
| 2026-05-05 22:32 | -27.27209 | -49.74045 | 32187 ft | 408 kts | 204° |
| 2026-05-05 22:33 | -27.32521 | -49.76255 | 32190 ft | 407 kts | 204° |
| 2026-05-05 22:33 | -27.37825 | -49.78466 | 32188 ft | 406 kts | 204° |
| 2026-05-05 22:34 | -27.43127 | -49.80677 | 32194 ft | 406 kts | 204° |
| 2026-05-05 22:34 | -27.48419 | -49.82887 | 32203 ft | 406 kts | 204° |
| 2026-05-05 22:35 | -27.53726 | -49.85105 | 32203 ft | 406 kts | 204° |
| 2026-05-05 22:35 | -27.58998 | -49.87310 | 32200 ft | 407 kts | 204° |
| 2026-05-05 22:36 | -27.64313 | -49.89525 | 32215 ft | 407 kts | 204° |
| 2026-05-05 22:36 | -27.69632 | -49.91754 | 32212 ft | 408 kts | 204° |
| 2026-05-05 22:37 | -27.74949 | -49.93992 | 32215 ft | 409 kts | 204° |
| 2026-05-05 22:37 | -27.80284 | -49.96237 | 32221 ft | 409 kts | 204° |
| 2026-05-05 22:38 | -27.85614 | -49.98479 | 32221 ft | 409 kts | 204° |
| 2026-05-05 22:38 | -27.90954 | -50.00727 | 32224 ft | 409 kts | 204° |
| 2026-05-05 22:39 | -27.96286 | -50.02974 | 32224 ft | 409 kts | 204° |
| 2026-05-05 22:39 | -28.01618 | -50.05223 | 32220 ft | 409 kts | 204° |
| 2026-05-05 22:40 | -28.06903 | -50.07454 | 32216 ft | 408 kts | 204° |
| 2026-05-05 22:40 | -28.12212 | -50.09698 | 32229 ft | 406 kts | 204° |
| 2026-05-05 22:41 | -28.17506 | -50.11939 | 32214 ft | 406 kts | 204° |
| 2026-05-05 22:41 | -28.22795 | -50.14180 | 32229 ft | 405 kts | 204° |
| 2026-05-05 22:42 | -28.28078 | -50.16420 | 32216 ft | 405 kts | 204° |
| 2026-05-05 22:42 | -28.33347 | -50.18657 | 32224 ft | 404 kts | 204° |
| 2026-05-05 22:43 | -28.38613 | -50.20895 | 32224 ft | 404 kts | 204° |
| 2026-05-05 22:43 | -28.43885 | -50.23138 | 32216 ft | 404 kts | 204° |
| 2026-05-05 22:44 | -28.49151 | -50.25381 | 32211 ft | 403 kts | 204° |
| 2026-05-05 22:44 | -28.54373 | -50.27608 | 32210 ft | 403 kts | 204° |
| 2026-05-05 22:45 | -28.59654 | -50.29862 | 32208 ft | 402 kts | 204° |
| 2026-05-05 22:45 | -28.64812 | -50.32065 | 32187 ft | 388 kts | 204° |
| 2026-05-05 22:45 | -28.67297 | -50.33125 | 32188 ft | 376 kts | 204° |
| 2026-05-05 22:46 | -28.69741 | -50.34171 | 32200 ft | 373 kts | 204° |
| 2026-05-05 22:46 | -28.74368 | -50.36750 | 31849 ft | 371 kts | 218° |
| 2026-05-05 22:46 | -28.76416 | -50.38523 | 31385 ft | 369 kts | 219° |
| 2026-05-05 22:47 | -28.78425 | -50.40277 | 30981 ft | 362 kts | 219° |
| 2026-05-05 22:47 | -28.80422 | -50.42015 | 30531 ft | 360 kts | 219° |
| 2026-05-05 22:47 | -28.82416 | -50.43739 | 30036 ft | 357 kts | 218° |
| 2026-05-05 22:47 | -28.84388 | -50.45437 | 29543 ft | 354 kts | 218° |
| 2026-05-05 22:48 | -28.86348 | -50.47118 | 29068 ft | 351 kts | 218° |
| 2026-05-05 22:48 | -28.88289 | -50.48781 | 28622 ft | 347 kts | 218° |
| 2026-05-05 22:48 | -28.90214 | -50.50429 | 28172 ft | 344 kts | 219° |
| 2026-05-05 22:48 | -28.92100 | -50.52042 | 27727 ft | 342 kts | 219° |
| 2026-05-05 22:49 | -28.93996 | -50.53665 | 27299 ft | 339 kts | 219° |
| 2026-05-05 22:49 | -28.95877 | -50.55276 | 26876 ft | 337 kts | 218° |
| 2026-05-05 22:49 | -28.97746 | -50.56878 | 26447 ft | 335 kts | 219° |
| 2026-05-05 22:49 | -28.99607 | -50.58474 | 26038 ft | 333 kts | 219° |
| 2026-05-05 22:50 | -29.01455 | -50.60058 | 25629 ft | 331 kts | 219° |
| 2026-05-05 22:50 | -29.03293 | -50.61637 | 25223 ft | 330 kts | 219° |
| 2026-05-05 22:50 | -29.05127 | -50.63211 | 24819 ft | 329 kts | 219° |
| 2026-05-05 22:50 | -29.06955 | -50.64781 | 24412 ft | 328 kts | 219° |
| 2026-05-05 22:51 | -29.08778 | -50.66347 | 23998 ft | 328 kts | 219° |
| 2026-05-05 22:51 | -29.10598 | -50.67912 | 23560 ft | 327 kts | 219° |
| 2026-05-05 22:51 | -29.12410 | -50.69488 | 23098 ft | 326 kts | 222° |
| 2026-05-05 22:51 | -29.14010 | -50.71303 | 22747 ft | 320 kts | 229° |
| 2026-05-05 22:52 | -29.15475 | -50.73215 | 22318 ft | 319 kts | 230° |
| 2026-05-05 22:52 | -29.16430 | -50.74489 | 22055 ft | 318 kts | 230° |
| 2026-05-05 22:52 | -29.18332 | -50.77027 | 21524 ft | 317 kts | 230° |
| 2026-05-05 22:52 | -29.19771 | -50.78932 | 21135 ft | 316 kts | 230° |
| 2026-05-05 22:53 | -29.21208 | -50.80822 | 20737 ft | 315 kts | 230° |
| 2026-05-05 22:53 | -29.22651 | -50.82711 | 20335 ft | 314 kts | 230° |
| 2026-05-05 22:53 | -29.23607 | -50.83961 | 20092 ft | 314 kts | 230° |
| 2026-05-05 22:53 | -29.25533 | -50.86474 | 19560 ft | 314 kts | 230° |
| 2026-05-05 22:54 | -29.26976 | -50.88358 | 19174 ft | 314 kts | 230° |
| 2026-05-05 22:54 | -29.27950 | -50.89628 | 18914 ft | 314 kts | 230° |
| 2026-05-05 22:54 | -29.29363 | -50.91470 | 18521 ft | 315 kts | 230° |
| 2026-05-05 22:54 | -29.30823 | -50.93374 | 18090 ft | 314 kts | 230° |
| 2026-05-05 22:55 | -29.32264 | -50.95255 | 17670 ft | 314 kts | 230° |
| 2026-05-05 22:55 | -29.33702 | -50.97133 | 17280 ft | 314 kts | 230° |
| 2026-05-05 22:55 | -29.35146 | -50.99019 | 16866 ft | 313 kts | 230° |
| 2026-05-05 22:55 | -29.36579 | -51.00892 | 16473 ft | 313 kts | 231° |
| 2026-05-05 22:56 | -29.38012 | -51.02765 | 16064 ft | 313 kts | 231° |
| 2026-05-05 22:56 | -29.39455 | -51.04641 | 15588 ft | 314 kts | 231° |
| 2026-05-05 22:56 | -29.40908 | -51.06523 | 15147 ft | 315 kts | 231° |
| 2026-05-05 22:56 | -29.42367 | -51.08413 | 14676 ft | 316 kts | 231° |
| 2026-05-05 22:57 | -29.43806 | -51.10279 | 14214 ft | 318 kts | 231° |
| 2026-05-05 22:57 | -29.45275 | -51.12185 | 13713 ft | 319 kts | 231° |
| 2026-05-05 22:57 | -29.46740 | -51.14088 | 13222 ft | 319 kts | 231° |
| 2026-05-05 22:57 | -29.48209 | -51.15997 | 12737 ft | 316 kts | 231° |
| 2026-05-05 22:58 | -29.49648 | -51.17866 | 12248 ft | 309 kts | 231° |
| 2026-05-05 22:58 | -29.51039 | -51.19673 | 12022 ft | 293 kts | 231° |
| 2026-05-05 22:58 | -29.52363 | -51.21393 | 11624 ft | 285 kts | 232° |
| 2026-05-05 22:58 | -29.53687 | -51.23120 | 11033 ft | 287 kts | 232° |
| 2026-05-05 22:59 | -29.54995 | -51.24827 | 10638 ft | 280 kts | 232° |
| 2026-05-05 22:59 | -29.56248 | -51.26458 | 10495 ft | 264 kts | 232° |
| 2026-05-05 22:59 | -29.57448 | -51.28022 | 10158 ft | 259 kts | 232° |
| 2026-05-05 22:59 | -29.58637 | -51.29575 | 9676 ft | 259 kts | 232° |
| 2026-05-05 23:00 | -29.61024 | -51.32692 | 8816 ft | 258 kts | 232° |
| 2026-05-05 23:00 | -29.62254 | -51.34197 | 8199 ft | 261 kts | 221° |
| 2026-05-05 23:00 | -29.63822 | -51.35147 | 7953 ft | 261 kts | 203° |
| 2026-05-05 23:01 | -29.65581 | -51.35819 | 7735 ft | 273 kts | 200° |
| 2026-05-05 23:01 | -29.67400 | -51.36466 | 7538 ft | 279 kts | 200° |
| 2026-05-05 23:01 | -29.69259 | -51.37134 | 7313 ft | 279 kts | 200° |
| 2026-05-05 23:01 | -29.71108 | -51.37809 | 7107 ft | 277 kts | 200° |
| 2026-05-05 23:02 | -29.72971 | -51.38349 | 6846 ft | 276 kts | 193° |
| 2026-05-05 23:02 | -29.74849 | -51.38676 | 6586 ft | 271 kts | 190° |
| 2026-05-05 23:02 | -29.76721 | -51.38966 | 6341 ft | 272 kts | 190° |
| 2026-05-05 23:02 | -29.78576 | -51.39260 | 6071 ft | 265 kts | 191° |
| 2026-05-05 23:03 | -29.80404 | -51.39562 | 5813 ft | 267 kts | 191° |
| 2026-05-05 23:03 | -29.82257 | -51.39878 | 5563 ft | 271 kts | 191° |
| 2026-05-05 23:03 | -29.84116 | -51.40202 | 5300 ft | 269 kts | 191° |
| 2026-05-05 23:03 | -29.85965 | -51.40527 | 5053 ft | 268 kts | 190° |
| 2026-05-05 23:04 | -29.87812 | -51.40853 | 4805 ft | 268 kts | 190° |
| 2026-05-05 23:04 | -29.89563 | -51.41167 | 4721 ft | 250 kts | 192° |
| 2026-05-05 23:04 | -29.91209 | -51.41568 | 4618 ft | 232 kts | 195° |
| 2026-05-05 23:04 | -29.92714 | -51.41961 | 4475 ft | 212 kts | 193° |
| 2026-05-05 23:05 | -29.94103 | -51.42261 | 4250 ft | 197 kts | 191° |
| 2026-05-05 23:05 | -29.95453 | -51.42484 | 3854 ft | 195 kts | 188° |
| 2026-05-05 23:05 | -29.96785 | -51.42322 | 3463 ft | 192 kts | 157° |
| 2026-05-05 23:05 | -29.97854 | -51.41534 | 3287 ft | 176 kts | 133° |
| 2026-05-05 23:06 | -29.98562 | -51.40344 | 3105 ft | 196 kts | 108° |
| 2026-05-05 23:06 | -29.98829 | -51.38761 | 3189 ft | 202 kts | 96° |
| 2026-05-05 23:06 | -29.99011 | -51.37200 | 3080 ft | 188 kts | 94° |
| 2026-05-05 23:06 | -29.99098 | -51.35752 | 2884 ft | 173 kts | 90° |
| 2026-05-05 23:07 | -29.99135 | -51.34397 | 2655 ft | 165 kts | 89° |
| 2026-05-05 23:07 | -29.99162 | -51.33103 | 2489 ft | 159 kts | 86° |
| 2026-05-05 23:07 | -29.99184 | -51.31819 | 2313 ft | 166 kts | 87° |
| 2026-05-05 23:07 | -29.99208 | -51.30493 | 2092 ft | 165 kts | 87° |
| 2026-05-05 23:08 | -29.99233 | -51.29153 | 1869 ft | 166 kts | 87° |
| 2026-05-05 23:08 | -29.99257 | -51.27847 | 1656 ft | 164 kts | 88° |
| 2026-05-05 23:08 | -29.99282 | -51.26546 | 1439 ft | 160 kts | 88° |
| 2026-05-05 23:08 | -29.99307 | -51.25266 | 1241 ft | 159 kts | 88° |
| 2026-05-05 23:09 | -29.99329 | -51.23994 | 1026 ft | 157 kts | 88° |
| 2026-05-05 23:09 | -29.99359 | -51.22748 | 819 ft | 153 kts | 90° |
| 2026-05-05 23:09 | -29.99372 | -51.21521 | 577 ft | 152 kts | 89° |
| 2026-05-05 23:09 | -29.99378 | -51.20290 | 409 ft | 155 kts | 91° |
| 2026-05-05 23:10 | -29.99411 | -51.19032 | 213 ft | 159 kts | 93° |
| 2026-05-05 23:10 | -29.99447 | -51.17771 | 31 ft | 150 kts | 91° |
| 2026-05-05 23:10 | -29.99469 | -51.16718 | 18 ft | 78 kts | 91° |
| 2026-05-05 23:10 | -29.99478 | -51.16355 | 22 ft | 28 kts | 92° |
| 2026-05-05 23:11 | -29.99444 | -51.16242 | 21 ft | 14 kts | 31° |
| 2026-05-05 23:11 | -29.99352 | -51.16229 | 19 ft | 14 kts | 0° |
| 2026-05-05 23:11 | -29.99293 | -51.16285 | 18 ft | 10 kts | 285° |
| 2026-05-05 23:11 | -29.99287 | -51.16362 | 18 ft | 9 kts | 271° |
| 2026-05-05 23:12 | -29.99287 | -51.16430 | 18 ft | 8 kts | 271° |
| 2026-05-05 23:12 | -29.99286 | -51.16488 | 18 ft | 7 kts | 271° |
| 2026-05-05 23:12 | -29.99285 | -51.16537 | 18 ft | 6 kts | 271° |
| 2026-05-05 23:12 | -29.99285 | -51.16577 | 18 ft | 0 kts | 271° |